Time;durP1;ratioP1;P1;durP2;ratioP2;P2;SDS_P1;SDS_P2;PMS_P1;PMS_P2;Temp;Humidity;BMP_temperature;BMP_pressure;BME280_temperature;BME280_humidity;BME280_pressure;Samples;Min_cycle;Max_cycle;Signal;HPM_P1;HPM_P2
2021/12/04 00:01:26;;;;;;;2.63;0.80;;;;;;;6.30;81.50;99096.09;4952013;28;20054;-78
2021/12/04 00:03:53;;;;;;;;;;;;;;;6.23;79.71;99090.41;4952222;28;20047;-78
2021/12/04 00:08:47;;;;;;;1.90;0.57;;;;;;;6.24;82.17;99092.00;4952267;28;20074;-78
2021/12/04 00:11:15;;;;;;;2.58;0.68;;;;;;;6.26;82.56;99084.19;4951419;28;20062;-79
2021/12/04 00:13:42;;;;;;;2.08;0.82;;;;;;;6.27;82.70;99094.84;4948872;28;20118;-79
2021/12/04 00:16:09;;;;;;;3.75;1.50;;;;;;;6.23;82.61;99091.22;4948494;28;20035;-79
2021/12/04 00:18:36;;;;;;;2.97;0.88;;;;;;;6.24;82.91;99097.50;4950161;28;20375;-79
2021/12/04 00:21:03;;;;;;;1.33;0.98;;;;;;;6.17;82.60;99087.13;4950566;28;20047;-79
2021/12/04 00:23:29;;;;;;;3.20;1.35;;;;;;;6.14;82.76;99087.88;4952508;28;20047;-79
2021/12/04 00:25:56;;;;;;;3.15;1.40;;;;;;;6.15;82.85;99094.94;4950946;28;20133;-79
2021/12/04 00:28:23;;;;;;;4.15;1.02;;;;;;;6.12;82.92;99101.13;4950354;28;20399;-79
2021/12/04 00:30:50;;;;;;;3.45;0.80;;;;;;;6.10;82.80;99089.72;4950243;28;20046;-79
2021/12/04 00:33:21;;;;;;;5.70;1.02;;;;;;;6.08;82.88;99089.28;4951207;28;20047;-78
2021/12/04 00:36:13;;;;;;;6.07;1.05;;;;;;;6.04;83.13;99093.88;4950921;28;20498;-79
2021/12/04 00:49:36;;;;;;;4.72;1.23;;;;;;;5.86;83.70;99087.16;4965391;28;20039;-79
2021/12/04 00:52:03;;;;;;;5.05;1.27;;;;;;;5.84;83.89;99079.25;4949468;28;20126;-79
2021/12/04 00:54:29;;;;;;;11.65;2.13;;;;;;;5.82;83.93;99064.28;4950151;28;20039;-78
2021/12/04 00:56:56;;;;;;;3.25;1.40;;;;;;;5.81;84.20;99079.16;4949474;28;20047;-79
2021/12/04 00:59:23;;;;;;;7.95;1.80;;;;;;;5.80;84.36;99088.56;4948808;28;20394;-79
2021/12/04 01:01:50;;;;;;;5.43;1.25;;;;;;;5.83;84.30;99068.59;4948687;28;20415;-78
2021/12/04 01:04:19;;;;;;;6.03;1.10;;;;;;;5.81;84.24;99070.91;4949622;28;20495;-79
2021/12/04 01:06:47;;;;;;;8.25;1.20;;;;;;;5.78;83.93;99069.66;4959934;28;20043;-79
2021/12/04 01:09:16;;;;;;;7.88;1.90;;;;;;;5.77;83.99;99090.03;4950790;28;20040;-78
2021/12/04 01:11:45;;;;;;;6.35;1.73;;;;;;;5.77;84.20;99078.28;4958325;28;20051;-78
2021/12/04 01:14:14;;;;;;;6.03;1.23;;;;;;;5.74;84.24;99078.97;4934026;28;20051;-78
2021/12/04 01:16:41;;;;;;;5.72;1.65;;;;;;;5.73;84.61;99069.13;4947834;28;20047;-79
2021/12/04 01:19:08;;;;;;;7.07;1.30;;;;;;;5.69;84.76;99066.31;4948923;28;20487;-79
2021/12/04 01:21:35;;;;;;;4.75;1.50;;;;;;;5.69;84.67;99069.06;4948592;28;20043;-79
2021/12/04 01:24:02;;;;;;;3.92;0.98;;;;;;;5.66;84.99;99067.03;4932636;28;20053;-78
2021/12/04 01:26:29;;;;;;;10.05;1.00;;;;;;;5.62;84.96;99071.59;4949968;28;20039;-78
2021/12/04 01:28:56;;;;;;;3.70;0.95;;;;;;;5.61;84.96;99059.03;4948473;28;20514;-79
2021/12/04 01:31:23;;;;;;;6.75;1.23;;;;;;;5.53;84.95;99071.00;4948564;28;20042;-79
2021/12/04 01:33:50;;;;;;;5.55;1.13;;;;;;;5.50;85.04;99068.94;4949381;28;20446;-79
2021/12/04 01:36:18;;;;;;;12.98;2.22;;;;;;;5.48;84.71;99069.28;4950073;28;20506;-79
2021/12/04 01:38:45;;;;;;;11.45;1.58;;;;;;;5.43;84.92;99058.56;4949210;28;20058;-78
2021/12/04 01:41:11;;;;;;;7.07;1.50;;;;;;;5.40;84.88;99059.25;4950091;28;20071;-78
2021/12/04 01:43:39;;;;;;;8.18;1.20;;;;;;;5.36;84.40;99046.59;4951547;28;20051;-78
2021/12/04 01:46:05;;;;;;;7.65;2.45;;;;;;;5.33;84.45;99063.78;4949962;28;20478;-78
2021/12/04 01:48:33;;;;;;;7.65;1.08;;;;;;;5.30;84.17;99070.75;4948938;28;20071;-78
2021/12/04 01:51:00;;;;;;;8.20;1.63;;;;;;;5.29;84.11;99051.91;4950230;28;20039;-78
2021/12/04 01:53:27;;;;;;;6.72;1.50;;;;;;;5.24;83.88;99071.38;4948177;28;20130;-78
2021/12/04 01:55:55;;;;;;;5.57;1.33;;;;;;;5.24;83.65;99083.13;4947849;28;20043;-78
2021/12/04 01:58:24;;;;;;;14.75;2.83;;;;;;;5.23;83.47;99065.09;4945588;28;20051;-79
2021/12/04 02:00:52;;;;;;;7.20;1.55;;;;;;;5.20;83.80;99078.69;4959818;28;20058;-79
2021/12/04 02:03:20;;;;;;;8.88;2.08;;;;;;;5.16;83.46;99075.88;4949015;28;20146;-79
2021/12/04 02:05:49;;;;;;;7.90;1.30;;;;;;;5.13;83.44;99084.81;4951425;28;20129;-79
2021/12/04 02:08:19;;;;;;;9.82;1.40;;;;;;;5.10;83.53;99088.25;4950307;28;20082;-78
2021/12/04 02:10:48;;;;;;;6.47;1.73;;;;;;;5.08;83.53;99085.06;4948718;28;20070;-79
2021/12/04 02:13:16;;;;;;;10.43;1.95;;;;;;;5.05;83.37;99088.50;4949181;28;20047;-78
2021/12/04 02:15:44;;;;;;;11.98;1.48;;;;;;;5.04;82.81;99110.75;4932778;28;20065;-79
2021/12/04 02:18:12;;;;;;;9.70;1.23;;;;;;;4.98;82.67;99082.00;4940768;28;20061;-78
2021/12/04 02:20:39;;;;;;;6.03;2.00;;;;;;;4.95;82.61;99085.44;4949207;28;20041;-78
2021/12/04 02:23:08;;;;;;;12.27;3.20;;;;;;;4.92;82.10;99084.97;4949936;28;20047;-79
2021/12/04 02:25:35;;;;;;;6.43;1.45;;;;;;;4.90;82.42;99095.50;4948358;28;20066;-78
2021/12/04 02:28:03;;;;;;;5.28;1.52;;;;;;;4.86;82.14;99082.84;4948083;28;20502;-79
2021/12/04 02:30:34;;;;;;;9.57;2.63;;;;;;;4.84;81.93;99085.91;4948217;28;20043;-78
2021/12/04 02:33:11;;;;;;;12.32;2.20;;;;;;;4.84;81.92;99104.31;4948815;28;20049;-79
2021/12/04 02:35:52;;;;;;;15.55;2.03;;;;;;;4.82;81.47;99098.38;4953543;28;20049;-78
2021/12/04 02:38:24;;;;;;;7.20;1.92;;;;;;;4.81;81.55;99091.31;4952417;28;20459;-79
2021/12/04 02:40:54;;;;;;;7.23;1.30;;;;;;;4.79;81.67;99101.84;4952516;28;20050;-79
2021/12/04 02:43:21;;;;;;;8.02;1.70;;;;;;;4.72;81.34;99112.56;4953975;28;20142;-78
2021/12/04 02:45:48;;;;;;;7.35;2.92;;;;;;;4.70;81.28;99106.63;4951892;28;20043;-78
2021/12/04 02:48:17;;;;;;;10.10;2.33;;;;;;;4.70;81.32;99114.84;4951761;28;20054;-78
2021/12/04 02:50:43;;;;;;;14.98;3.13;;;;;;;4.65;80.86;99115.09;4951360;28;20046;-78
2021/12/04 02:53:10;;;;;;;7.10;1.80;;;;;;;4.65;80.91;99110.41;4968376;28;20102;-79
2021/12/04 02:55:38;;;;;;;6.35;1.10;;;;;;;4.61;80.50;99120.47;4951741;28;20035;-78
2021/12/04 02:58:05;;;;;;;14.77;2.90;;;;;;;4.59;80.38;99127.44;4950652;28;20414;-79
2021/12/04 03:00:33;;;;;;;13.68;2.70;;;;;;;4.56;80.50;99128.13;4966549;28;20043;-79
2021/12/04 03:03:02;;;;;;;6.40;1.80;;;;;;;4.52;79.99;99132.72;4967499;28;20042;-78
2021/12/04 03:05:30;;;;;;;7.85;1.52;;;;;;;4.47;80.22;99132.94;4957311;28;20047;-78
2021/12/04 03:07:58;;;;;;;14.55;1.73;;;;;;;4.47;80.12;99127.47;4951948;28;20086;-78
2021/12/04 03:10:25;;;;;;;11.30;2.10;;;;;;;4.46;80.04;99134.88;4964464;28;20049;-78
2021/12/04 03:12:53;;;;;;;8.57;1.58;;;;;;;4.41;79.95;99132.38;4953416;28;20035;-78
2021/12/04 03:15:21;;;;;;;7.18;1.45;;;;;;;4.37;80.16;99120.50;4951706;28;20126;-78
2021/12/04 03:17:49;;;;;;;8.32;1.48;;;;;;;4.35;79.99;99121.97;4950691;28;20069;-78
2021/12/04 03:20:16;;;;;;;12.43;2.28;;;;;;;4.30;80.03;99128.50;4951313;28;20050;-78
2021/12/04 03:22:45;;;;;;;9.70;2.03;;;;;;;4.27;80.24;99120.97;4952372;28;20094;-79
2021/12/04 03:25:15;;;;;;;7.55;1.75;;;;;;;4.24;80.08;99127.91;4952630;28;20130;-79
2021/12/04 03:27:47;;;;;;;10.05;2.20;;;;;;;4.21;80.04;99125.84;4952104;28;20411;-78
2021/12/04 03:30:42;;;;;;;9.10;3.05;;;;;;;4.17;79.96;99119.47;4951792;28;20051;-79
2021/12/04 03:41:03;;;;;;;9.77;1.77;;;;;;;4.05;80.32;99107.75;4952211;28;20126;-78
2021/12/04 03:43:30;;;;;;;11.40;1.60;;;;;;;3.98;80.39;99100.06;4954749;28;20051;-78
2021/12/04 03:46:00;;;;;;;10.45;1.70;;;;;;;3.96;80.43;99116.06;4950464;28;20082;-79
2021/12/04 03:51:00;;;;;;;14.25;2.03;;;;;;;3.94;80.64;99104.66;4949099;28;20039;-78
2021/12/04 03:53:27;;;;;;;7.10;1.63;;;;;;;3.92;80.45;99086.97;4949628;28;20047;-78
2021/12/04 03:55:54;;;;;;;10.43;2.30;;;;;;;3.90;80.75;99089.22;4958176;28;20113;-78
2021/12/04 03:58:25;;;;;;;12.88;2.67;;;;;;;3.90;80.60;99084.56;4951614;28;20479;-78
2021/12/04 04:00:53;;;;;;;15.82;1.60;;;;;;;3.87;80.51;99090.72;4934384;28;20058;-79
2021/12/04 04:03:20;;;;;;;8.82;2.00;;;;;;;3.87;80.75;99084.44;4950625;28;22110;-78
2021/12/04 04:05:47;;;;;;;8.27;2.20;;;;;;;3.81;80.54;99086.63;4951025;28;20130;-79
2021/12/04 04:08:15;;;;;;;10.52;1.48;;;;;;;3.80;80.55;99085.00;4951503;28;20118;-78
2021/12/04 04:10:43;;;;;;;7.68;1.30;;;;;;;3.77;80.62;99079.41;4951248;28;20031;-78
2021/12/04 04:13:12;;;;;;;11.30;2.92;;;;;;;3.77;80.62;99074.72;4950480;28;20075;-78
2021/12/04 04:15:40;;;;;;;5.20;1.08;;;;;;;3.73;80.99;99090.25;4950503;28;20077;-78
2021/12/04 04:18:08;;;;;;;7.13;1.38;;;;;;;3.71;80.73;99092.50;4951301;28;20069;-78
2021/12/04 04:20:34;;;;;;;7.97;1.15;;;;;;;3.71;80.92;99081.56;4951639;28;20503;-78
2021/12/04 04:23:01;;;;;;;7.35;1.42;;;;;;;3.68;80.66;99071.28;4951706;28;20506;-78
2021/12/04 04:25:28;;;;;;;6.93;1.45;;;;;;;3.65;80.92;99070.03;4965609;28;20054;-79
2021/12/04 04:27:55;;;;;;;5.53;0.82;;;;;;;3.65;80.75;99072.00;4966423;28;20090;-79
2021/12/04 04:30:22;;;;;;;11.43;1.23;;;;;;;3.62;80.90;99084.41;4950022;28;20720;-78
2021/12/04 04:32:50;;;;;;;5.00;0.95;;;;;;;3.57;80.97;99087.34;4949264;28;20462;-78
2021/12/04 04:35:21;;;;;;;2.40;0.70;;;;;;;3.54;80.98;99081.78;4950942;28;20133;-78
2021/12/04 05:13:20;;;;;;;4.68;0.80;;;;;;;3.40;81.34;99127.78;4950931;28;20133;-78
2021/12/04 05:21:04;;;;;;;6.82;0.90;;;;;;;3.38;81.31;99138.28;4949606;28;20046;-78
2021/12/04 05:23:37;;;;;;;8.27;0.90;;;;;;;3.38;81.41;99130.06;4950295;28;20047;-79
2021/12/04 05:26:07;;;;;;;2.40;0.50;;;;;;;3.35;81.19;99136.19;4950431;28;20443;-78
2021/12/04 05:28:33;;;;;;;5.88;0.90;;;;;;;3.37;81.38;99129.25;4950253;28;20039;-79
2021/12/04 05:31:00;;;;;;;5.72;0.60;;;;;;;3.36;81.03;99126.88;4948776;28;20043;-79
2021/12/04 05:33:28;;;;;;;7.82;0.85;;;;;;;3.36;81.12;99146.00;4948779;28;20074;-79
2021/12/04 05:35:55;;;;;;;0.85;0.70;;;;;;;3.36;81.21;99152.25;4948947;28;20047;-79
2021/12/04 05:38:22;;;;;;;8.82;1.17;;;;;;;3.39;80.96;99146.13;4949558;28;20043;-79
2021/12/04 05:40:49;;;;;;;1.52;0.57;;;;;;;3.41;81.17;99137.59;4950012;28;20435;-78
2021/12/04 05:43:21;;;;;;;12.23;1.02;;;;;;;3.45;81.49;99139.31;4932733;28;20054;-79
2021/12/04 05:45:55;;;;;;;9.50;0.63;;;;;;;3.48;81.62;99149.59;4948167;28;20111;-79
2021/12/04 05:48:47;;;;;;;2.63;0.65;;;;;;;3.50;81.61;99144.56;4948872;28;20045;-78
2021/12/04 05:56:16;;;;;;;5.22;0.93;;;;;;;3.47;81.68;99141.69;4947556;28;20086;-79
2021/12/04 05:58:43;;;;;;;6.03;0.80;;;;;;;3.47;81.67;99152.66;4950440;28;20071;-79
2021/12/04 06:01:10;;;;;;;2.92;0.70;;;;;;;3.43;82.01;99155.28;4945362;28;20154;-78
2021/12/04 06:03:37;;;;;;;3.90;0.57;;;;;;;3.41;81.87;99154.00;4948932;28;20043;-78
2021/12/04 06:06:04;;;;;;;3.72;0.73;;;;;;;3.39;81.98;99161.75;4949328;28;20122;-78
2021/12/04 06:08:31;;;;;;;5.25;0.43;;;;;;;3.36;81.69;99162.44;4952983;28;20039;-78
2021/12/04 06:10:57;;;;;;;3.97;0.68;;;;;;;3.35;82.01;99149.88;4953360;28;20518;-78
2021/12/04 06:13:24;;;;;;;4.10;1.00;;;;;;;3.34;81.66;99159.22;4953602;28;20130;-79
2021/12/04 06:15:51;;;;;;;4.85;1.27;;;;;;;3.33;81.69;99157.63;4935471;28;20053;-79
2021/12/04 06:18:20;;;;;;;3.15;0.47;;;;;;;3.30;81.77;99171.97;4953190;28;20043;-79
2021/12/04 06:23:35;;;;;;;6.40;0.85;;;;;;;3.25;81.79;99164.78;4959445;28;20400;-78
2021/12/04 06:26:06;;;;;;;8.63;0.47;;;;;;;3.25;81.85;99172.19;4951915;28;20039;-78
2021/12/04 06:28:33;;;;;;;4.38;2.55;;;;;;;3.24;81.98;99174.09;4951935;28;21443;-78
2021/12/04 06:31:00;;;;;;;6.00;0.80;;;;;;;3.22;81.75;99172.84;4953223;28;20043;-79
2021/12/04 06:33:28;;;;;;;2.50;0.60;;;;;;;3.20;81.67;99175.13;4952076;28;20101;-79
2021/12/04 06:35:55;;;;;;;3.10;0.50;;;;;;;3.20;81.81;99169.66;4953202;28;20047;-79
2021/12/04 06:38:22;;;;;;;1.02;0.70;;;;;;;3.19;82.03;99182.50;4953051;28;20053;-78
2021/12/04 06:40:50;;;;;;;4.70;0.80;;;;;;;3.16;81.81;99179.63;4962969;28;20151;-78
2021/12/04 06:43:17;;;;;;;3.75;1.95;;;;;;;3.15;82.27;99183.53;4953506;28;20043;-79
2021/12/04 06:45:50;;;;;;;4.63;1.55;;;;;;;3.16;82.26;99198.78;4952111;28;20045;-79
2021/12/04 06:48:22;;;;;;;7.65;0.70;;;;;;;3.17;82.26;99209.41;4951354;28;20389;-78
2021/12/04 06:51:01;;;;;;;12.35;1.17;;;;;;;3.17;82.27;99209.41;4949713;28;20039;-79
2021/12/04 06:53:38;;;;;;;4.35;0.82;;;;;;;3.20;82.26;99218.88;4935834;28;20053;-79
2021/12/04 06:56:07;;;;;;;7.85;0.90;;;;;;;3.23;82.56;99220.94;4952414;28;20051;-79
2021/12/04 06:58:35;;;;;;;4.50;1.02;;;;;;;3.29;82.66;99222.31;4951249;28;20708;-78
2021/12/04 07:01:04;;;;;;;3.63;0.95;;;;;;;3.33;82.75;99220.53;4952482;28;20602;-79
2021/12/04 07:03:31;;;;;;;7.70;1.20;;;;;;;3.36;82.83;99226.13;4952365;28;20043;-78
2021/12/04 07:05:58;;;;;;;5.28;1.15;;;;;;;3.42;82.40;99224.78;4952427;28;20045;-79
2021/12/04 07:08:29;;;;;;;8.98;0.80;;;;;;;3.46;82.50;99222.19;4953117;28;20050;-79
2021/12/04 07:10:57;;;;;;;6.53;2.08;;;;;;;3.43;82.60;99225.59;4951008;28;20043;-79
2021/12/04 07:13:24;;;;;;;1.58;0.50;;;;;;;3.42;82.90;99230.25;4951572;28;20051;-79
2021/12/04 07:16:00;;;;;;;7.50;1.10;;;;;;;3.45;82.66;99231.53;4950691;28;20238;-79
2021/12/04 07:18:27;;;;;;;36.22;3.13;;;;;;;3.47;82.92;99231.97;4935003;28;20102;-78
2021/12/04 07:20:55;;;;;;;5.85;1.40;;;;;;;3.51;82.80;99232.94;4950756;28;20039;-79
2021/12/04 07:23:22;;;;;;;5.38;1.13;;;;;;;3.47;82.47;99221.03;4952054;28;20699;-79
2021/12/04 07:25:48;;;;;;;2.88;0.73;;;;;;;3.49;82.63;99210.59;4951103;28;20130;-78
2021/12/04 07:28:15;;;;;;;9.52;1.67;;;;;;;3.48;82.49;99222.66;4947970;28;20090;-78
2021/12/04 07:30:42;;;;;;;9.45;1.30;;;;;;;3.46;82.83;99230.41;4953286;28;20040;-79
2021/12/04 07:33:09;;;;;;;10.27;1.33;;;;;;;3.46;82.62;99233.13;4951594;28;20062;-78
2021/12/04 07:35:36;;;;;;;10.50;1.58;;;;;;;3.42;82.39;99237.66;4958388;28;20150;-79
2021/12/04 07:38:03;;;;;;;3.92;1.10;;;;;;;3.41;82.38;99252.50;4953097;28;20050;-79
2021/12/04 07:40:30;;;;;;;9.57;1.45;;;;;;;3.39;82.65;99246.56;4966088;28;20063;-78
2021/12/04 07:42:57;;;;;;;3.60;1.35;;;;;;;3.33;82.72;99256.91;4949959;28;20059;-79
2021/12/04 07:45:24;;;;;;;4.22;0.85;;;;;;;3.32;82.89;99265.41;4951460;28;20146;-79
2021/12/04 07:47:50;;;;;;;5.70;1.48;;;;;;;3.28;82.54;99264.50;4951508;28;20043;-79
2021/12/04 07:50:18;;;;;;;7.80;1.63;;;;;;;3.29;82.77;99268.81;4949525;28;20079;-79
2021/12/04 07:52:45;;;;;;;8.52;1.83;;;;;;;3.27;82.49;99271.91;4952017;28;20074;-79
2021/12/04 07:55:11;;;;;;;10.73;1.15;;;;;;;3.25;82.61;99270.63;4950670;28;20057;-79
2021/12/04 07:57:38;;;;;;;6.63;0.93;;;;;;;3.23;82.65;99272.91;4952925;28;20042;-78
2021/12/04 08:00:09;;;;;;;4.07;0.93;;;;;;;3.21;82.88;99286.09;4949415;28;20094;-79
2021/12/04 08:02:36;;;;;;;6.05;1.00;;;;;;;3.24;82.57;99285.41;4951176;28;20070;-78
2021/12/04 08:05:03;;;;;;;2.47;0.90;;;;;;;3.22;82.72;99282.22;4936031;28;20490;-79
2021/12/04 08:07:30;;;;;;;7.70;1.60;;;;;;;3.22;82.70;99288.50;4952230;28;20091;-78
2021/12/04 08:09:56;;;;;;;3.58;1.02;;;;;;;3.24;82.75;99308.09;4950190;28;20047;-79
2021/12/04 08:12:23;;;;;;;8.80;1.05;;;;;;;3.27;82.64;99301.16;4950249;28;20040;-79
2021/12/04 08:14:53;;;;;;;3.38;1.00;;;;;;;3.26;82.45;99285.88;4950505;28;20049;-79
2021/12/04 08:17:20;;;;;;;7.47;1.42;;;;;;;3.25;82.51;99300.72;4934063;28;20141;-78
2021/12/04 08:19:47;;;;;;;2.05;1.15;;;;;;;3.24;82.50;99291.69;4951573;28;20047;-78
2021/12/04 08:22:14;;;;;;;4.97;0.70;;;;;;;3.25;82.86;99287.03;4965974;28;20138;-79
2021/12/04 08:24:42;;;;;;;4.30;1.38;;;;;;;3.22;82.53;99276.75;4930809;28;21123;-79
2021/12/04 08:27:10;;;;;;;5.88;1.27;;;;;;;3.21;82.59;99283.34;4948535;28;22426;-78
2021/12/04 08:29:36;;;;;;;5.95;1.05;;;;;;;3.23;82.90;99281.09;4948926;28;20055;-79
2021/12/04 08:32:04;;;;;;;8.18;1.00;;;;;;;3.24;82.92;99279.94;4950356;28;20035;-79
2021/12/04 08:34:31;;;;;;;2.70;1.25;;;;;;;3.25;83.03;99276.09;4950146;28;20058;-78
2021/12/04 08:36:58;;;;;;;3.17;1.08;;;;;;;3.25;82.65;99282.38;4950364;28;20113;-78
2021/12/04 08:39:24;;;;;;;6.00;1.27;;;;;;;3.25;82.94;99295.25;4950902;28;20036;-78
2021/12/04 08:41:51;;;;;;;6.90;1.35;;;;;;;3.24;83.01;99296.38;4956097;28;20161;-78
2021/12/04 08:44:19;;;;;;;10.57;3.15;;;;;;;3.22;82.97;99284.97;4949913;28;20148;-79
2021/12/04 08:46:47;;;;;;;6.05;0.65;;;;;;;3.23;82.73;99287.34;4949499;28;20047;-78
2021/12/04 08:49:14;;;;;;;1.45;0.95;;;;;;;3.22;nan;99290.44;4942925;28;21541;-79
2021/12/04 08:51:44;;;;;;;6.05;1.00;;;;;;;3.20;82.72;99289.97;4947821;28;20035;-78
2021/12/04 08:54:13;;;;;;;5.05;1.75;;;;;;;3.18;82.80;99289.50;4936838;28;20058;-79
2021/12/04 08:56:40;;;;;;;6.30;0.98;;;;;;;3.19;83.00;99304.75;4949354;28;20373;-78
2021/12/04 08:59:08;;;;;;;7.35;1.35;;;;;;;3.22;83.30;99302.19;4946461;28;20047;-78
2021/12/04 09:01:39;;;;;;;11.35;1.90;;;;;;;3.21;82.84;99292.34;4940140;28;20059;-79
2021/12/04 09:04:06;;;;;;;11.40;2.38;;;;;;;3.23;82.83;99320.16;4950645;28;20043;-80
2021/12/04 09:06:34;;;;;;;5.38;1.17;;;;;;;3.27;83.28;99323.06;4951480;28;20122;-79
2021/12/04 09:09:01;;;;;;;5.53;1.33;;;;;;;3.29;83.21;99318.84;4948310;28;20087;-79
2021/12/04 09:11:33;;;;;;;3.05;1.48;;;;;;;3.29;82.78;99318.03;4949126;28;20063;-79
2021/12/04 09:14:02;;;;;;;7.35;1.75;;;;;;;3.31;83.35;99308.38;4964722;28;20166;-78
2021/12/04 09:16:29;;;;;;;11.23;1.75;;;;;;;3.32;83.17;99303.72;4946215;28;20106;-79
2021/12/04 09:18:56;;;;;;;9.50;1.40;;;;;;;3.29;83.72;99298.91;4950358;28;20125;-78
2021/12/04 09:21:25;;;;;;;8.73;2.28;;;;;;;3.28;83.50;99321.94;4957927;28;20043;-79
2021/12/04 09:24:01;;;;;;;5.00;1.20;;;;;;;3.27;83.63;99323.84;4951206;28;20039;-79
2021/12/04 09:26:49;;;;;;;12.18;2.53;;;;;;;3.30;83.79;99322.41;4933841;28;20240;-78
2021/12/04 09:59:39;;;;;;;9.07;3.00;;;;;;;3.71;82.18;99373.63;4948059;28;20086;-78
2021/12/04 10:13:31;;;;;;;3.13;1.10;;;;;;;3.85;81.69;99374.16;4948328;28;20174;-86
2021/12/04 10:34:50;;;;;;;8.07;1.23;;;;;;;4.05;81.27;99365.13;4965989;28;20057;-85
2021/12/04 10:37:24;;;;;;;4.53;1.92;;;;;;;4.07;81.03;99358.19;4948590;28;20035;-85
2021/12/04 10:40:03;;;;;;;10.07;1.52;;;;;;;4.10;81.10;99357.50;4948106;28;20426;-84
2021/12/04 10:42:46;;;;;;;7.68;1.90;;;;;;;4.12;80.43;99355.25;4951298;28;20054;-84
2021/12/04 10:45:12;;;;;;;4.00;1.17;;;;;;;4.16;80.92;99356.16;4965885;28;20047;-87
2021/12/04 10:47:51;;;;;;;4.43;1.60;;;;;;;4.16;80.86;99372.59;4948653;28;20043;-85
2021/12/04 10:50:43;;;;;;;7.78;2.63;;;;;;;4.18;80.47;99355.84;4942356;28;20043;-90
2021/12/04 10:53:13;;;;;;;5.38;1.33;;;;;;;4.20;79.90;99351.63;4948628;28;20039;-85
2021/12/04 11:26:44;;;;;;;4.85;1.20;;;;;;;4.65;78.95;99372.75;4949721;28;20145;-84
2021/12/04 11:42:58;;;;;;;9.70;1.55;;;;;;;4.82;78.74;99356.09;4951393;28;20101;-86
2021/12/04 11:45:33;;;;;;;5.35;1.50;;;;;;;4.83;78.69;99357.72;4951192;28;20058;-85
2021/12/04 11:48:04;;;;;;;3.65;1.35;;;;;;;4.84;78.70;99359.31;4949890;28;20078;-86
2021/12/04 11:50:35;;;;;;;9.30;1.90;;;;;;;4.86;78.88;99352.34;4951385;28;20107;-86
2021/12/04 11:53:06;;;;;;;4.20;1.00;;;;;;;4.87;78.50;99356.69;4946227;28;20051;-87
2021/12/04 11:55:37;;;;;;;9.57;2.63;;;;;;;4.91;78.85;99365.84;4963134;28;20174;-87
2021/12/04 11:58:17;;;;;;;6.97;1.30;;;;;;;4.93;79.04;99365.47;4950861;28;20657;-85
2021/12/04 12:00:45;;;;;;;4.10;1.75;;;;;;;4.94;79.02;99358.88;4963763;28;20086;-86
2021/12/04 12:03:16;;;;;;;4.47;1.27;;;;;;;4.96;78.41;99359.31;4950700;28;20399;-86
2021/12/04 12:05:51;;;;;;;6.97;1.17;;;;;;;5.02;78.85;99355.22;4950054;28;20078;-86
2021/12/04 12:08:42;;;;;;;5.43;1.50;;;;;;;5.09;78.90;99380.13;4949373;28;20484;-86
2021/12/04 12:11:11;;;;;;;5.85;1.88;;;;;;;5.16;79.22;99374.91;4964501;28;20474;-86
2021/12/04 12:13:48;;;;;;;13.38;1.50;;;;;;;5.19;78.88;99387.91;4962162;28;20039;-86
2021/12/04 12:16:21;;;;;;;8.60;1.42;;;;;;;5.13;78.95;99389.28;4948427;28;20051;-87
2021/12/04 12:19:03;;;;;;;8.52;1.48;;;;;;;5.09;78.87;99393.84;4943056;28;20055;-87
2021/12/04 12:22:34;;;;;;;9.20;1.55;;;;;;;5.06;78.55;99399.19;4950487;28;20440;-86
2021/12/04 12:27:38;;;;;;;4.05;1.27;;;;;;;5.05;78.55;99397.63;4951380;28;20051;-87
2021/12/04 12:33:17;;;;;;;2.10;1.08;;;;;;;5.07;78.63;99418.06;4950768;28;20043;-88
2021/12/04 12:39:01;;;;;;;3.78;1.20;;;;;;;5.09;79.00;99425.94;4951266;28;20043;-88
2021/12/04 12:41:31;;;;;;;2.42;0.80;;;;;;;5.12;78.96;99426.09;4962045;28;20440;-87
2021/12/04 12:44:14;;;;;;;5.57;1.00;;;;;;;5.15;78.96;99433.63;4964362;28;20050;-86
2021/12/04 12:46:46;;;;;;;5.43;2.45;;;;;;;5.17;78.82;99416.81;4930729;29;20043;-86
2021/12/04 12:49:34;;;;;;;6.82;1.63;;;;;;;5.25;79.00;99413.97;4944064;28;20391;-85
2021/12/04 12:52:06;;;;;;;6.70;1.40;;;;;;;5.30;78.68;99411.00;4949599;28;20142;-87
2021/12/04 12:54:59;;;;;;;3.83;0.90;;;;;;;5.30;78.61;99404.72;4950498;28;20158;-86
2021/12/04 12:57:36;;;;;;;5.03;1.25;;;;;;;5.30;78.24;99421.97;4948953;28;20066;-87
2021/12/04 13:14:30;;;;;;;5.17;0.70;;;;;;;5.45;77.04;99429.53;4949379;28;20451;-85
2021/12/04 13:17:06;;;;;;;4.07;1.17;;;;;;;5.50;77.74;99442.25;4946940;28;20039;-87
2021/12/04 13:19:40;;;;;;;5.75;1.70;;;;;;;5.48;77.45;99439.03;4949951;28;20054;-84
2021/12/04 13:22:13;;;;;;;6.40;1.90;;;;;;;5.49;77.86;99452.41;4950895;28;20051;-86
2021/12/04 13:24:42;;;;;;;1.67;0.80;;;;;;;5.53;77.57;99450.56;4965099;28;20067;-85
2021/12/04 13:29:48;;;;;;;5.20;1.00;;;;;;;5.59;76.36;99442.13;4949576;28;20495;-84
2021/12/04 13:32:18;;;;;;;2.38;0.85;;;;;;;5.60;76.64;99449.19;4949774;28;20110;-84
2021/12/04 13:34:45;;;;;;;4.78;1.60;;;;;;;5.62;76.68;99460.63;4950472;28;20087;-84
2021/12/04 13:37:12;;;;;;;3.03;1.15;;;;;;;5.71;76.92;99461.34;4949618;28;20055;-84
2021/12/04 13:39:42;;;;;;;3.97;1.33;;;;;;;5.75;76.72;99459.47;4937501;28;20053;-84
2021/12/04 13:42:08;;;;;;;1.73;0.63;;;;;;;5.82;76.78;99465.22;4949313;28;20043;-84
2021/12/04 13:44:36;;;;;;;3.33;0.80;;;;;;;5.85;77.19;99473.59;4934202;28;20542;-85
2021/12/04 13:47:08;;;;;;;3.35;0.82;;;;;;;5.89;76.80;99465.47;4949496;28;20059;-84
2021/12/04 13:50:00;;;;;;;9.88;1.77;;;;;;;5.82;76.31;99465.22;4949362;28;20126;-85
2021/12/04 13:52:32;;;;;;;6.77;1.20;;;;;;;5.75;76.50;99467.72;4948853;28;20039;-84
2021/12/04 13:55:05;;;;;;;6.72;1.30;;;;;;;5.80;76.74;99457.31;4949381;28;20505;-84
2021/12/04 13:57:33;;;;;;;5.05;1.23;;;;;;;5.84;76.64;99462.91;4948725;28;20039;-84
2021/12/04 14:00:03;;;;;;;6.35;1.63;;;;;;;5.86;76.71;99471.66;4950063;28;20126;-83
2021/12/04 14:02:32;;;;;;;5.55;1.00;;;;;;;5.82;76.30;99451.50;4949561;28;20050;-84
2021/12/04 14:05:07;;;;;;;5.13;1.40;;;;;;;5.76;75.84;99474.81;4935281;28;20093;-85
2021/12/04 14:07:35;;;;;;;3.80;0.93;;;;;;;5.81;76.57;99477.34;4948866;28;20078;-85
2021/12/04 14:10:23;;;;;;;2.65;0.90;;;;;;;5.79;75.49;99476.88;4948506;28;20130;-84
2021/12/04 14:12:50;;;;;;;6.03;1.00;;;;;;;5.71;76.02;99478.63;4932746;28;20134;-85
2021/12/04 14:15:20;;;;;;;6.15;1.95;;;;;;;5.66;75.59;99480.78;4933289;28;20047;-84
2021/12/04 14:17:56;;;;;;;6.18;1.40;;;;;;;5.61;75.74;99489.25;4960818;28;20271;-84
2021/12/04 14:20:24;;;;;;;5.20;1.48;;;;;;;5.56;75.63;99490.25;4948700;28;20047;-84
2021/12/04 14:22:53;;;;;;;6.60;1.17;;;;;;;5.51;75.75;99499.53;4932539;28;20058;-85
2021/12/04 14:25:23;;;;;;;6.55;1.40;;;;;;;5.51;76.08;99505.00;4946580;28;20146;-85
2021/12/04 14:27:52;;;;;;;6.43;1.85;;;;;;;5.48;75.75;99504.91;4963978;28;20083;-85
2021/12/04 14:30:21;;;;;;;5.13;1.17;;;;;;;5.57;75.98;99497.34;4951974;28;20131;-85
2021/12/04 14:32:54;;;;;;;7.25;1.45;;;;;;;5.60;75.56;99507.66;4953548;28;20079;-86
2021/12/04 14:35:37;;;;;;;8.32;2.30;;;;;;;5.60;75.81;99510.41;4952033;28;20044;-84
2021/12/04 14:38:08;;;;;;;7.57;1.70;;;;;;;5.56;75.75;99509.47;4952185;28;20049;-85
2021/12/04 14:40:42;;;;;;;7.70;2.38;;;;;;;5.50;75.91;99503.44;4954062;28;20039;-85
2021/12/04 14:43:12;;;;;;;7.85;1.50;;;;;;;5.48;76.31;99521.38;4953783;28;20127;-84
2021/12/04 14:45:41;;;;;;;8.40;1.40;;;;;;;5.45;76.34;99514.59;4951664;28;20138;-85
2021/12/04 14:48:12;;;;;;;5.97;1.73;;;;;;;5.42;76.18;99525.50;4953046;28;20051;-85
2021/12/04 14:50:44;;;;;;;6.00;1.75;;;;;;;5.39;76.01;99526.16;4953710;28;20039;-85
2021/12/04 14:53:14;;;;;;;5.85;1.45;;;;;;;5.34;75.74;99520.91;4937109;29;20121;-84
2021/12/04 14:55:43;;;;;;;2.72;1.13;;;;;;;5.26;75.97;99530.03;4953435;28;20555;-85
2021/12/04 14:58:17;;;;;;;6.97;1.95;;;;;;;5.21;75.97;99544.78;4937341;29;20483;-85
2021/12/04 15:00:51;;;;;;;7.80;1.10;;;;;;;5.15;76.21;99546.13;4953009;28;20149;-85
2021/12/04 15:03:37;;;;;;;4.15;0.93;;;;;;;5.11;76.23;99550.66;4936814;29;20059;-85
2021/12/04 15:06:06;;;;;;;2.25;1.02;;;;;;;5.09;76.07;99557.63;4950599;28;20107;-85
2021/12/04 15:08:38;;;;;;;4.53;1.00;;;;;;;5.06;76.01;99552.81;4951328;28;20170;-85
2021/12/04 15:11:10;;;;;;;4.80;1.30;;;;;;;5.03;76.28;99559.00;4951768;28;20043;-85
2021/12/04 15:13:47;;;;;;;6.93;1.70;;;;;;;4.99;76.72;99564.34;4951717;28;20698;-85
2021/12/04 15:16:16;;;;;;;6.60;1.65;;;;;;;4.97;76.34;99569.38;4944472;28;20047;-86
2021/12/04 15:18:43;;;;;;;3.90;1.38;;;;;;;4.98;76.94;99570.94;4951570;28;20102;-85